Flight Track Log - Related Links

Times and Time Zones

All times are in EDT time to prevent confusion due to time zone crossing. See the ENY3496 flight status page for this flight to view local times or setup timezone preferences in your user account.

Time Position Orientation Groundspeed Altitude Reporting Facility
EDT Latitude Longitude Course Direction KTS MPH feet Rate Location/Type
Sun 10:02:16 AM 25.8014 -80.2700 86° East 151 174 1,100  Level Miami Center
Sun 10:03:05 AM 25.8042 -80.2239 86° East 204 235 3,200 2,532 Climbing Miami Center
Sun 10:04:05 AM 25.8083 -80.1594 86° East 229 264 5,700 2,529 Climbing Miami Center
Sun 10:05:06 AM 25.8089 -80.0808 90° East 262 302 8,300 2,803 Climbing Miami Center
Sun 10:06:07 AM 25.8389 -80.0019 67° East 265 305 11,400 2,452 Climbing Miami Center
Sun 10:07:01 AM 25.8750 -79.9539 50° Northeast 264 304 13,000 1,461 Climbing Miami Center
Sun 10:08:02 AM 25.9289 -79.8794 51° Northeast 316 364 14,200 1,366 Climbing Miami Center
Sun 10:09:04 AM 25.9867 -79.7953 53° Northeast 338 389 15,800 878 Climbing Miami Center
Sun 10:10:05 AM 26.0483 -79.7053 53° Northeast 365 420 16,000 927 Climbing Miami Center
Sun 10:11:07 AM 26.1147 -79.5822 59° Northeast 386 444 17,700 1,597 Climbing Miami Center
Sun 10:12:09 AM 26.1336 -79.4711 79° East 367 422 19,300 1,610 Climbing Miami Center
Sun 10:13:10 AM 26.1506 -79.3592 80° East 368 423 21,000 1,659 Climbing Miami Center
Sun 10:14:12 AM 26.1692 -79.2467 80° East 368 423 22,700 968 Climbing Miami Center
Sun 10:15:14 AM 26.1886 -79.1306 79° East 382 440 23,000 146 Climbing Miami Center
Sun 10:16:15 AM 26.2092 -79.0039 80° East 412 474 23,000  Level Miami Center
Sun 10:17:17 AM 26.2303 -78.8689 80° East 422 486 23,000  Level Miami Center
Sun 10:18:18 AM 26.2514 -78.7425 79° East 421 484 23,000  Level Miami Center
Sun 10:19:20 AM 26.2758 -78.5914 80° East 419 482 23,000  Level Miami Center
Sun 10:20:22 AM 26.2961 -78.4650 80° East 420 483 23,000 -341 Level Miami Center
Sun 10:21:23 AM 26.3169 -78.3369 80° East 421 484 22,300 -1,463 Descending Miami Center
Sun 10:22:25 AM 26.3369 -78.2111 80° East 420 483 20,000 -2,177 Descending Miami Center
Sun 10:23:27 AM 26.3567 -78.0894 80° East 407 468 17,800 -2,244 Descending Miami Center
Sun 10:24:28 AM 26.3750 -77.9681 80° East 400 460 15,400 -2,585 Descending Miami Center
Sun 10:25:30 AM 26.3972 -77.8272 80° East 391 450 12,500 -2,565 Descending Miami Center
Sun 10:26:32 AM 26.4139 -77.7217 80° East 353 406 10,100 -1,500 Descending Miami Center
Sun 10:27:34 AM 26.4269 -77.6331 81° East 299 344 9,400 -1,024 Descending Miami Center
Sun 10:28:35 AM 26.4389 -77.5528 81° East 263 303 8,000 -1,171 Descending Miami Center
Sun 10:29:37 AM 26.4511 -77.4750 80° East 262 302 7,000 -968 Descending Miami Center

Login

Don't have an account? Register now (free) for customized features, flight alerts, and more!